createdAt,value
2023-04-17T00:00:02.069Z,17.80
2023-04-17T00:03:14.240Z,16.90
2023-04-17T00:06:19.263Z,17.38
2023-04-17T00:09:23.795Z,19.38
2023-04-17T00:12:28.209Z,17.25
2023-04-17T00:15:32.356Z,20.50
2023-04-17T00:18:36.924Z,19.52
2023-04-17T00:21:41.536Z,20.65
2023-04-17T00:24:46.315Z,21.20
2023-04-17T00:27:51.034Z,17.45
2023-04-17T00:30:55.803Z,17.40
2023-04-17T00:34:01.561Z,17.85
2023-04-17T00:37:06.137Z,16.50
2023-04-17T00:40:11.678Z,20.77
2023-04-17T00:43:16.029Z,18.95
2023-04-17T00:46:21.219Z,17.67
2023-04-17T00:49:26.761Z,16.92
2023-04-17T00:52:31.640Z,21.00
2023-04-17T00:55:39.393Z,15.10
2023-04-17T00:58:44.451Z,17.63
2023-04-17T01:01:55.052Z,18.73
2023-04-17T01:05:00.299Z,20.92
2023-04-17T01:08:05.155Z,19.05
2023-04-17T01:11:11.108Z,16.38
2023-04-17T01:14:15.834Z,16.00
2023-04-17T01:17:21.650Z,18.30
2023-04-17T01:20:30.040Z,17.33
2023-04-17T01:23:50.036Z,20.95
2023-04-17T01:26:54.944Z,18.55
2023-04-17T01:30:01.380Z,20.42
2023-04-17T01:33:08.791Z,18.25
2023-04-17T01:36:14.789Z,17.15
2023-04-17T01:39:19.437Z,20.33
2023-04-17T01:42:24.316Z,20.83
2023-04-17T01:45:28.918Z,24.17
2023-04-17T01:48:34.379Z,22.25
2023-04-17T01:51:39.143Z,21.05
2023-04-17T01:54:43.855Z,20.20
2023-04-17T01:57:49.777Z,20.75
2023-04-17T02:00:54.464Z,20.73
2023-04-17T02:03:59.116Z,27.65
2023-04-17T02:07:04.104Z,26.00
2023-04-17T02:10:09.495Z,23.88
2023-04-17T02:13:14.412Z,20.20
2023-04-17T02:16:23.973Z,21.15
2023-04-17T02:19:28.602Z,20.27
2023-04-17T02:22:33.309Z,23.17
2023-04-17T02:25:37.719Z,20.23
2023-04-17T02:28:45.650Z,19.75
2023-04-17T02:31:50.733Z,15.98
2023-04-17T02:34:56.204Z,20.70
2023-04-17T02:38:01.001Z,17.60
2023-04-17T02:41:06.082Z,19.15
2023-04-17T02:44:11.713Z,17.65
2023-04-17T02:47:16.192Z,19.33
2023-04-17T02:50:21.005Z,19.23
2023-04-17T02:53:38.937Z,22.00
2023-04-17T02:56:43.302Z,19.90
2023-04-17T02:59:48.058Z,24.63
2023-04-17T03:02:52.916Z,20.52
2023-04-17T03:05:57.954Z,22.75
2023-04-17T03:09:03.007Z,24.52
2023-04-17T03:12:07.297Z,23.73
2023-04-17T03:15:11.897Z,20.38
2023-04-17T03:18:16.510Z,24.88
2023-04-17T03:21:21.427Z,19.92
2023-04-17T03:24:26.922Z,16.05
2023-04-17T03:27:31.597Z,18.50
2023-04-17T03:30:35.839Z,18.10
2023-04-17T03:33:45.017Z,21.02
2023-04-17T03:36:49.619Z,16.02
2023-04-17T03:39:55.631Z,18.85
2023-04-17T03:43:00.224Z,19.42
2023-04-17T03:46:05.030Z,23.08
2023-04-17T03:49:10.603Z,19.95
2023-04-17T03:52:16.433Z,21.13
2023-04-17T03:55:22.513Z,24.77
2023-04-17T03:58:27.423Z,21.83
2023-04-17T04:01:32.810Z,22.80
2023-04-17T04:04:48.244Z,17.48
2023-04-17T04:07:52.934Z,21.80
2023-04-17T04:11:10.256Z,22.65
2023-04-17T04:14:16.907Z,23.55
2023-04-17T04:17:24.781Z,22.52
2023-04-17T04:20:30.256Z,22.45
2023-04-17T04:23:49.759Z,22.27
2023-04-17T04:27:05.250Z,21.55
2023-04-17T04:30:13.056Z,27.95
2023-04-17T04:33:21.152Z,28.80
2023-04-17T04:36:29.715Z,29.73
2023-04-17T04:39:47.503Z,25.58
2023-04-17T04:42:53.506Z,23.90
2023-04-17T04:46:06.731Z,27.27
2023-04-17T04:49:16.387Z,23.80
2023-04-17T04:52:20.959Z,24.42
2023-04-17T04:55:27.163Z,22.45
2023-04-17T04:58:34.049Z,20.48
2023-04-17T05:01:40.183Z,19.15
2023-04-17T05:04:46.880Z,23.33
2023-04-17T05:07:54.895Z,25.40
2023-04-17T05:11:03.136Z,23.30
2023-04-17T05:14:07.862Z,26.88
2023-04-17T05:17:14.990Z,25.27
2023-04-17T05:20:20.107Z,27.83
2023-04-17T05:23:29.386Z,25.30
2023-04-17T05:26:34.503Z,25.70
2023-04-17T05:29:40.777Z,27.00
2023-04-17T05:32:46.280Z,23.48
2023-04-17T05:36:04.773Z,25.55
2023-04-17T05:39:12.899Z,20.50
2023-04-17T05:42:18.061Z,26.55
2023-04-17T05:45:25.384Z,24.83
2023-04-17T05:48:31.330Z,25.27
2023-04-17T05:51:35.938Z,27.13
2023-04-17T05:54:40.588Z,28.42
2023-04-17T05:57:46.522Z,26.02
2023-04-17T06:00:52.405Z,32.90
2023-04-17T06:03:58.094Z,30.00
2023-04-17T06:07:06.222Z,32.97
2023-04-17T06:10:13.466Z,29.45
2023-04-17T06:13:18.890Z,26.58
2023-04-17T06:16:26.807Z,29.83
2023-04-17T06:19:31.355Z,26.08
2023-04-17T06:22:44.134Z,27.02
2023-04-17T06:25:48.485Z,28.55
2023-04-17T06:28:53.047Z,29.38
2023-04-17T06:31:57.831Z,31.55
2023-04-17T06:35:03.051Z,31.30
2023-04-17T06:38:24.465Z,26.77
2023-04-17T06:41:29.376Z,30.33
2023-04-17T06:44:33.714Z,33.58
2023-04-17T06:47:38.756Z,31.58
2023-04-17T06:50:43.801Z,32.55
2023-04-17T06:53:48.563Z,27.70
2023-04-17T06:56:53.256Z,30.15
2023-04-17T06:59:57.611Z,33.72
2023-04-17T07:03:02.587Z,31.58
2023-04-17T07:06:08.460Z,31.52
2023-04-17T07:09:13.216Z,35.45
2023-04-17T07:12:18.101Z,32.47
2023-04-17T07:15:23.016Z,45.53
2023-04-17T07:18:29.464Z,45.28
2023-04-17T07:21:33.904Z,39.42
2023-04-17T07:24:38.966Z,43.03
2023-04-17T07:27:43.758Z,37.72
2023-04-17T07:30:48.522Z,41.72
2023-04-17T07:33:53.352Z,34.20
2023-04-17T07:36:57.914Z,38.38
2023-04-17T07:40:04.880Z,34.30
2023-04-17T07:43:09.270Z,45.30
2023-04-17T07:46:14.592Z,39.50
2023-04-17T07:49:19.229Z,38.33
2023-04-17T07:52:24.074Z,42.17
2023-04-17T07:55:29.040Z,37.67
2023-04-17T07:58:35.707Z,39.17
2023-04-17T08:01:41.138Z,39.13
2023-04-17T08:04:46.892Z,30.80
2023-04-17T08:07:51.820Z,27.83
2023-04-17T08:10:56.450Z,37.08
2023-04-17T08:14:02.589Z,32.85
2023-04-17T08:17:07.762Z,39.03
2023-04-17T08:20:12.157Z,39.55
2023-04-17T08:23:16.969Z,36.28
2023-04-17T08:26:22.586Z,36.50
2023-04-17T08:29:27.742Z,35.63
2023-04-17T08:32:45.765Z,39.78
2023-04-17T08:35:52.075Z,38.70
2023-04-17T08:38:56.716Z,32.83
2023-04-17T08:42:07.800Z,27.33
2023-04-17T08:45:13.737Z,26.67
2023-04-17T08:48:17.916Z,30.02
2023-04-17T08:51:26.327Z,38.53
2023-04-17T08:54:36.489Z,35.88
2023-04-17T08:58:04.655Z,35.35
2023-04-17T09:01:11.551Z,35.30
2023-04-17T09:04:43.088Z,39.50
2023-04-17T09:07:51.291Z,32.40
2023-04-17T09:10:56.529Z,40.33
2023-04-17T09:14:01.370Z,37.30
2023-04-17T09:17:05.968Z,35.42
2023-04-17T09:20:14.364Z,31.45
2023-04-17T09:23:20.038Z,33.78
2023-04-17T09:26:32.006Z,30.33
2023-04-17T09:30:01.029Z,31.50
2023-04-17T09:33:08.785Z,29.20
2023-04-17T09:36:22.207Z,31.90
2023-04-17T09:39:27.130Z,36.92
2023-04-17T09:42:31.915Z,31.10
2023-04-17T09:45:40.273Z,28.02
2023-04-17T09:48:46.025Z,33.05
2023-04-17T09:51:51.215Z,30.17
2023-04-17T09:54:56.272Z,28.40
2023-04-17T09:58:07.543Z,30.88
2023-04-17T10:01:12.905Z,24.20
2023-04-17T10:04:19.391Z,22.17
2023-04-17T10:07:24.128Z,22.08
2023-04-17T10:10:36.280Z,23.63
2023-04-17T10:13:45.072Z,22.77
2023-04-17T10:16:50.536Z,23.02
2023-04-17T10:19:55.945Z,20.60
2023-04-17T10:23:01.297Z,19.55
2023-04-17T10:26:24.883Z,19.52
2023-04-17T10:29:59.796Z,21.83
2023-04-17T10:33:13.593Z,25.90
2023-04-17T10:36:43.220Z,22.08
2023-04-17T10:39:56.602Z,23.08
2023-04-17T10:43:14.884Z,25.60
2023-04-17T10:46:19.463Z,21.75
2023-04-17T10:49:25.298Z,22.63
2023-04-17T10:52:32.914Z,22.08
2023-04-17T10:55:50.388Z,18.83
2023-04-17T10:59:03.471Z,20.75
2023-04-17T11:02:08.339Z,19.52
2023-04-17T11:05:13.216Z,19.23
2023-04-17T11:08:18.076Z,18.58
2023-04-17T11:11:35.272Z,21.20
2023-04-17T11:14:48.612Z,21.17
2023-04-17T11:17:54.358Z,20.30
2023-04-17T11:20:59.197Z,18.77
2023-04-17T11:24:04.400Z,17.17
2023-04-17T11:27:08.875Z,20.33
2023-04-17T11:30:23.301Z,20.83
2023-04-17T11:33:28.289Z,18.65
2023-04-17T11:36:33.155Z,17.20
2023-04-17T11:39:41.630Z,19.55
2023-04-17T11:42:46.286Z,20.38
2023-04-17T11:46:01.687Z,16.55
2023-04-17T11:49:07.382Z,17.17
2023-04-17T11:52:12.032Z,19.65
2023-04-17T11:55:16.928Z,18.95
2023-04-17T11:58:21.533Z,17.70
2023-04-17T12:01:27.955Z,19.60
2023-04-17T12:04:34.824Z,16.10
2023-04-17T12:07:39.838Z,16.20
2023-04-17T12:10:45.407Z,17.55
2023-04-17T12:13:51.234Z,15.93
2023-04-17T12:16:55.861Z,15.88
2023-04-17T12:20:04.064Z,16.92
2023-04-17T12:23:09.305Z,19.27
2023-04-17T12:26:14.594Z,18.17
2023-04-17T12:29:26.532Z,17.60
2023-04-17T12:32:39.540Z,17.40
2023-04-17T12:35:44.625Z,17.17
2023-04-17T12:38:49.290Z,16.85
2023-04-17T12:41:53.603Z,14.43
2023-04-17T12:44:58.496Z,19.00
2023-04-17T12:48:04.485Z,15.30
2023-04-17T12:51:09.054Z,13.15
2023-04-17T12:54:14.099Z,13.60
2023-04-17T12:57:18.911Z,14.95
2023-04-17T13:00:23.463Z,14.77
2023-04-17T13:03:28.227Z,16.42
2023-04-17T13:06:33.091Z,13.40
2023-04-17T13:09:37.898Z,13.65
2023-04-17T13:12:42.538Z,15.10
2023-04-17T13:15:48.727Z,13.80
2023-04-17T13:18:53.507Z,14.95
2023-04-17T13:21:58.105Z,14.40
2023-04-17T13:25:04.262Z,15.07
2023-04-17T13:28:08.765Z,14.32
2023-04-17T13:31:14.142Z,15.82
2023-04-17T13:34:19.662Z,12.45
2023-04-17T13:37:25.688Z,11.30
2023-04-17T13:40:31.155Z,13.57
2023-04-17T13:43:35.670Z,14.40
2023-04-17T13:46:41.159Z,12.32
2023-04-17T13:49:46.484Z,11.18
2023-04-17T13:52:53.101Z,10.77
2023-04-17T13:55:58.497Z,12.55
2023-04-17T13:59:05.196Z,13.45
2023-04-17T14:02:09.874Z,13.75
2023-04-17T14:05:15.550Z,9.57
2023-04-17T14:08:20.127Z,12.50
2023-04-17T14:11:25.369Z,10.73
2023-04-17T14:14:30.270Z,10.25
2023-04-17T14:17:38.242Z,12.63
2023-04-17T14:20:43.366Z,13.43
2023-04-17T14:23:50.717Z,13.65
2023-04-17T14:26:57.618Z,13.32
2023-04-17T14:30:02.833Z,12.48
2023-04-17T14:33:08.645Z,12.60
2023-04-17T14:36:13.481Z,12.50
2023-04-17T14:39:19.681Z,12.40
2023-04-17T14:42:24.207Z,13.43
2023-04-17T14:45:29.060Z,13.32
2023-04-17T14:48:41.110Z,12.68
2023-04-17T14:51:56.668Z,13.43
2023-04-17T14:55:01.228Z,10.23
2023-04-17T14:58:06.184Z,9.13
2023-04-17T15:01:11.447Z,13.45
2023-04-17T15:04:16.426Z,12.55
2023-04-17T15:07:21.291Z,10.60
2023-04-17T15:10:26.610Z,11.60
2023-04-17T15:13:31.958Z,12.07
2023-04-17T15:16:36.593Z,10.10
2023-04-17T15:19:41.061Z,9.25
2023-04-17T15:22:52.402Z,11.43
2023-04-17T15:25:58.163Z,11.75
2023-04-17T15:29:03.760Z,9.52
2023-04-17T15:32:08.370Z,11.63
2023-04-17T15:35:13.225Z,9.32
2023-04-17T15:38:19.083Z,9.38
2023-04-17T15:41:24.101Z,9.50
2023-04-17T15:44:29.306Z,9.43
2023-04-17T15:47:33.768Z,12.15
2023-04-17T15:50:38.400Z,10.88
2023-04-17T15:53:43.128Z,8.60
2023-04-17T15:56:47.550Z,9.43
2023-04-17T15:59:52.663Z,10.75
2023-04-17T16:02:57.318Z,7.88
2023-04-17T16:06:02.507Z,7.28
2023-04-17T16:09:07.275Z,7.82
2023-04-17T16:12:12.261Z,6.75
2023-04-17T16:15:18.115Z,6.00
2023-04-17T16:18:23.110Z,5.78
2023-04-17T16:21:28.679Z,5.00
2023-04-17T16:24:33.121Z,6.22
2023-04-17T16:27:39.274Z,6.32
2023-04-17T16:30:44.067Z,5.93
2023-04-17T16:33:49.785Z,6.57
2023-04-17T16:36:54.320Z,6.45
2023-04-17T16:40:05.321Z,7.15
2023-04-17T16:43:13.100Z,7.03
2023-04-17T16:46:24.076Z,6.75
2023-04-17T16:49:35.332Z,7.18
2023-04-17T16:52:41.025Z,6.32
2023-04-17T16:55:45.788Z,7.70
2023-04-17T16:58:50.622Z,7.13
2023-04-17T17:01:56.457Z,6.70
2023-04-17T17:05:02.100Z,7.45
2023-04-17T17:08:07.018Z,10.25
2023-04-17T17:11:11.574Z,7.60
2023-04-17T17:14:16.313Z,6.45
2023-04-17T17:17:21.342Z,6.63
2023-04-17T17:20:26.774Z,6.78
2023-04-17T17:23:32.210Z,5.38
2023-04-17T17:26:37.328Z,7.97
2023-04-17T17:29:42.105Z,8.13
2023-04-17T17:32:46.824Z,7.88
2023-04-17T17:35:53.262Z,5.93
2023-04-17T17:38:57.850Z,6.45
2023-04-17T17:42:08.485Z,8.07
2023-04-17T17:45:13.334Z,11.43
2023-04-17T17:48:20.226Z,8.48
2023-04-17T17:51:25.364Z,8.43
2023-04-17T17:54:30.002Z,7.35
2023-04-17T17:57:46.019Z,6.30
2023-04-17T18:00:53.149Z,7.47
2023-04-17T18:03:57.736Z,6.65
2023-04-17T18:07:03.708Z,6.30
2023-04-17T18:10:09.213Z,7.95
2023-04-17T18:13:13.724Z,7.00
2023-04-17T18:16:18.181Z,7.75
2023-04-17T18:19:22.972Z,6.13
2023-04-17T18:22:27.370Z,5.47
2023-04-17T18:25:32.112Z,7.32
2023-04-17T18:28:36.817Z,5.78
2023-04-17T18:31:42.395Z,7.78
2023-04-17T18:34:49.269Z,7.30
2023-04-17T18:37:53.644Z,7.28
2023-04-17T18:40:59.394Z,7.50
2023-04-17T18:44:03.896Z,6.22
2023-04-17T18:47:08.883Z,6.13
2023-04-17T18:50:13.498Z,6.25
2023-04-17T18:53:18.395Z,6.18
2023-04-17T18:56:26.500Z,6.13
2023-04-17T18:59:31.451Z,6.57
2023-04-17T19:02:37.071Z,5.78
2023-04-17T19:05:41.624Z,6.10
2023-04-17T19:08:46.493Z,5.80
2023-04-17T19:11:52.124Z,5.85
2023-04-17T19:15:00.099Z,5.53
2023-04-17T19:18:06.670Z,6.25
2023-04-17T19:21:11.800Z,6.28
2023-04-17T19:24:16.896Z,5.80
2023-04-17T19:27:22.815Z,5.63
2023-04-17T19:30:27.504Z,6.05
2023-04-17T19:33:33.344Z,7.78
2023-04-17T19:36:38.115Z,7.15
2023-04-17T19:39:42.893Z,6.07
2023-04-17T19:42:47.585Z,6.15
2023-04-17T19:45:52.321Z,6.50
2023-04-17T19:48:56.857Z,7.78
2023-04-17T19:52:01.485Z,7.45
2023-04-17T19:55:09.583Z,5.72
2023-04-17T19:58:14.366Z,7.22
2023-04-17T20:01:19.342Z,7.18
2023-04-17T20:04:24.364Z,6.72
2023-04-17T20:07:29.485Z,7.57
2023-04-17T20:10:33.825Z,7.57
2023-04-17T20:13:38.987Z,6.82
2023-04-17T20:16:45.352Z,7.05
2023-04-17T20:19:49.825Z,8.65
2023-04-17T20:22:54.296Z,7.82
2023-04-17T20:25:58.690Z,7.63
2023-04-17T20:29:03.296Z,8.55
2023-04-17T20:32:07.705Z,7.20
2023-04-17T20:35:12.452Z,6.63
2023-04-17T20:38:16.981Z,6.57
2023-04-17T20:41:21.408Z,7.00
2023-04-17T20:44:25.847Z,7.72
2023-04-17T20:47:30.713Z,6.97
2023-04-17T20:50:35.652Z,6.80
2023-04-17T20:53:40.323Z,7.68
2023-04-17T20:56:44.937Z,6.88
2023-04-17T20:59:49.510Z,9.10
2023-04-17T21:02:54.224Z,6.53
2023-04-17T21:05:59.770Z,8.63
2023-04-17T21:09:05.140Z,6.72
2023-04-17T21:12:09.942Z,8.20
2023-04-17T21:15:14.781Z,5.90
2023-04-17T21:18:19.412Z,7.90
2023-04-17T21:21:24.312Z,9.25
2023-04-17T21:24:29.136Z,7.30
2023-04-17T21:27:33.381Z,8.20
2023-04-17T21:30:38.302Z,6.93
2023-04-17T21:33:42.946Z,6.82
2023-04-17T21:36:49.040Z,6.15
2023-04-17T21:39:54.632Z,7.60
2023-04-17T21:43:01.000Z,7.13
2023-04-17T21:46:10.434Z,8.40
2023-04-17T21:49:14.962Z,7.95
2023-04-17T21:52:19.685Z,8.70
2023-04-17T21:55:24.518Z,8.05
2023-04-17T21:58:29.695Z,6.15
2023-04-17T22:01:34.256Z,7.18
2023-04-17T22:04:38.976Z,6.43
2023-04-17T22:07:53.694Z,8.05
2023-04-17T22:10:59.176Z,9.43
2023-04-17T22:14:03.870Z,9.55
2023-04-17T22:17:08.190Z,10.43
2023-04-17T22:21:08.699Z,10.27
2023-04-17T22:24:32.129Z,8.40
2023-04-17T22:28:14.333Z,8.60
2023-04-17T22:32:33.980Z,8.63
2023-04-17T22:36:53.666Z,11.73
2023-04-17T22:41:13.525Z,10.63
2023-04-17T22:44:55.154Z,10.45
2023-04-17T22:48:57.936Z,9.02
2023-04-17T22:52:21.754Z,10.45
2023-04-17T22:56:03.847Z,11.20
2023-04-17T23:00:25.344Z,11.55
2023-04-17T23:04:07.288Z,11.90
2023-04-17T23:07:30.277Z,12.30
2023-04-17T23:10:35.409Z,13.55
2023-04-17T23:13:40.089Z,11.93
2023-04-17T23:16:44.846Z,9.52
2023-04-17T23:19:49.492Z,9.65
2023-04-17T23:22:53.834Z,8.82
2023-04-17T23:25:58.542Z,11.95
2023-04-17T23:29:03.153Z,12.13
2023-04-17T23:32:08.475Z,12.73
2023-04-17T23:35:13.137Z,10.48
2023-04-17T23:38:17.992Z,10.95
2023-04-17T23:41:22.928Z,10.55
2023-04-17T23:44:27.762Z,11.70
2023-04-17T23:47:32.385Z,12.27
2023-04-17T23:50:37.133Z,12.52
2023-04-17T23:53:41.784Z,12.32
2023-04-17T23:56:46.078Z,10.05
2023-04-17T23:59:50.895Z,9.95
